createdAt,value
2017-06-12T00:00:22.736Z,2.17
2017-06-12T00:02:50.197Z,2.60
2017-06-12T00:05:17.643Z,2.20
2017-06-12T00:07:45.113Z,2.10
2017-06-12T00:10:12.568Z,2.37
2017-06-12T00:12:40.028Z,2.60
2017-06-12T00:15:07.481Z,2.70
2017-06-12T00:17:34.929Z,2.40
2017-06-12T00:20:02.488Z,2.93
2017-06-12T00:22:30.057Z,2.80
2017-06-12T00:24:57.517Z,2.17
2017-06-12T00:27:24.977Z,2.47
2017-06-12T00:29:52.460Z,2.90
2017-06-12T00:32:20.676Z,2.80
2017-06-12T00:34:48.146Z,2.53
2017-06-12T00:37:15.596Z,3.20
2017-06-12T00:39:43.173Z,3.07
2017-06-12T00:42:10.617Z,2.50
2017-06-12T00:44:38.078Z,2.60
2017-06-12T00:47:05.536Z,2.90
2017-06-12T00:49:32.989Z,2.50
2017-06-12T00:52:00.560Z,2.80
2017-06-12T00:54:28.008Z,2.70
2017-06-12T00:56:55.476Z,2.90
2017-06-12T00:59:22.909Z,2.80
2017-06-12T01:01:50.390Z,2.60
2017-06-12T01:04:17.833Z,3.00
2017-06-12T01:06:45.396Z,2.50
2017-06-12T01:09:12.849Z,2.87
2017-06-12T01:11:40.429Z,3.53
2017-06-12T01:14:07.993Z,2.63
2017-06-12T01:16:35.472Z,3.10
2017-06-12T01:19:02.924Z,3.13
2017-06-12T01:21:31.149Z,3.00
2017-06-12T01:23:58.608Z,2.70
2017-06-12T01:26:26.094Z,3.13
2017-06-12T01:28:53.558Z,3.20
2017-06-12T01:31:21.101Z,2.77
2017-06-12T01:33:48.561Z,2.87
2017-06-12T01:36:16.118Z,2.77
2017-06-12T01:38:43.585Z,3.17
2017-06-12T01:41:11.137Z,3.07
2017-06-12T01:43:38.603Z,3.03
2017-06-12T01:46:06.145Z,3.10
2017-06-12T01:48:33.600Z,3.00
2017-06-12T01:51:01.057Z,3.00
2017-06-12T01:53:28.524Z,3.00
2017-06-12T01:55:55.976Z,4.20
2017-06-12T01:58:23.424Z,3.73
2017-06-12T02:00:50.882Z,3.40
2017-06-12T02:03:18.337Z,4.10
2017-06-12T02:05:45.793Z,4.40
2017-06-12T02:08:13.249Z,4.40
2017-06-12T02:10:40.710Z,3.87
2017-06-12T02:13:08.173Z,4.20
2017-06-12T02:15:35.650Z,4.00
2017-06-12T02:18:03.084Z,4.30
2017-06-12T02:20:30.541Z,4.27
2017-06-12T02:22:57.980Z,4.13
2017-06-12T02:25:25.440Z,4.50
2017-06-12T02:27:52.890Z,4.83
2017-06-12T02:30:20.379Z,5.00
2017-06-12T02:32:47.837Z,4.40
2017-06-12T02:35:15.293Z,5.80
2017-06-12T02:37:42.841Z,5.20
2017-06-12T02:40:10.292Z,6.27
2017-06-12T02:42:37.749Z,6.17
2017-06-12T02:45:05.216Z,7.50
2017-06-12T02:47:32.699Z,7.30
2017-06-12T02:50:00.921Z,7.33
2017-06-12T02:52:28.401Z,9.53
2017-06-12T02:54:55.857Z,7.20
2017-06-12T02:57:23.317Z,7.80
2017-06-12T02:59:50.781Z,5.60
2017-06-12T03:02:18.354Z,6.87
2017-06-12T03:04:45.893Z,5.60
2017-06-12T03:07:13.345Z,5.90
2017-06-12T03:09:40.797Z,6.70
2017-06-12T03:12:08.281Z,6.30
2017-06-12T03:14:35.745Z,8.60
2017-06-12T03:17:03.285Z,8.57
2017-06-12T03:19:30.841Z,8.40
2017-06-12T03:21:58.296Z,9.00
2017-06-12T03:24:25.861Z,6.97
2017-06-12T03:26:53.328Z,8.00
2017-06-12T03:29:20.877Z,7.33
2017-06-12T03:31:48.339Z,7.70
2017-06-12T03:34:15.817Z,7.80
2017-06-12T03:36:43.290Z,7.53
2017-06-12T03:39:10.729Z,7.00
2017-06-12T03:41:38.982Z,7.43
2017-06-12T03:44:06.434Z,7.90
2017-06-12T03:46:33.910Z,8.87
2017-06-12T03:49:01.358Z,10.03
2017-06-12T03:51:28.809Z,9.57
2017-06-12T03:53:56.277Z,9.40
2017-06-12T03:56:23.716Z,7.77
2017-06-12T03:58:51.184Z,8.33
2017-06-12T04:01:19.457Z,8.50
2017-06-12T04:03:46.917Z,9.20
2017-06-12T04:06:14.370Z,8.80
2017-06-12T04:08:41.828Z,7.83
2017-06-12T04:11:09.284Z,8.07
2017-06-12T04:13:36.740Z,7.30
2017-06-12T04:16:04.207Z,8.07
2017-06-12T04:18:31.661Z,8.80
2017-06-12T04:20:59.113Z,7.60
2017-06-12T04:23:26.587Z,7.20
2017-06-12T04:25:54.030Z,6.50
2017-06-12T04:28:21.893Z,6.37
2017-06-12T04:30:49.356Z,6.70
2017-06-12T04:33:16.830Z,6.30
2017-06-12T04:35:44.302Z,6.77
2017-06-12T04:38:12.509Z,5.60
2017-06-12T04:40:39.997Z,5.57
2017-06-12T04:43:07.448Z,5.60
2017-06-12T04:45:35.020Z,6.10
2017-06-12T04:48:02.474Z,5.83
2017-06-12T04:50:29.917Z,5.40
2017-06-12T04:52:57.393Z,4.33
2017-06-12T04:55:24.845Z,4.60
2017-06-12T04:57:52.311Z,4.87
2017-06-12T05:00:19.765Z,5.17
2017-06-12T05:02:47.249Z,4.60
2017-06-12T05:05:14.719Z,4.43
2017-06-12T05:07:42.754Z,4.50
2017-06-12T05:10:10.225Z,4.30
2017-06-12T05:12:37.714Z,4.40
2017-06-12T05:15:05.202Z,3.87
2017-06-12T05:17:32.705Z,3.50
2017-06-12T05:20:00.234Z,3.57
2017-06-12T05:22:27.746Z,3.20
2017-06-12T05:24:55.193Z,3.00
2017-06-12T05:27:22.641Z,3.40
2017-06-12T05:29:50.108Z,2.57
2017-06-12T05:32:17.549Z,3.47
2017-06-12T05:34:45.009Z,3.33
2017-06-12T05:37:12.457Z,2.60
2017-06-12T05:39:40.680Z,2.73
2017-06-12T05:42:08.143Z,2.90
2017-06-12T05:44:35.598Z,3.50
2017-06-12T05:47:03.041Z,3.00
2017-06-12T05:49:30.497Z,2.70
2017-06-12T05:51:57.944Z,2.27
2017-06-12T05:54:25.419Z,1.70
2017-06-12T05:56:52.865Z,1.43
2017-06-12T05:59:20.321Z,1.10
2017-06-12T06:01:47.785Z,1.00
2017-06-12T06:04:15.238Z,1.30
2017-06-12T06:06:42.705Z,0.90
2017-06-12T06:09:10.149Z,0.80
2017-06-12T06:11:37.616Z,0.70
2017-06-12T06:14:05.066Z,1.10
2017-06-12T06:16:32.520Z,0.73
2017-06-12T06:18:59.965Z,0.90
2017-06-12T06:21:27.437Z,0.70
2017-06-12T06:23:54.881Z,0.70
2017-06-12T06:26:22.357Z,0.80
2017-06-12T06:28:49.805Z,0.60
2017-06-12T06:31:17.262Z,0.80
2017-06-12T06:33:44.725Z,0.73
2017-06-12T06:36:12.178Z,0.63
2017-06-12T06:38:39.642Z,0.80
2017-06-12T06:41:07.092Z,0.70
2017-06-12T06:43:34.566Z,0.70
2017-06-12T06:46:02.026Z,0.70
2017-06-12T06:48:29.499Z,0.60
2017-06-12T06:50:56.946Z,0.77
2017-06-12T06:53:24.405Z,0.70
2017-06-12T06:55:51.849Z,0.50
2017-06-12T06:58:19.313Z,0.70
2017-06-12T07:00:46.772Z,0.73
2017-06-12T07:03:14.228Z,0.73
2017-06-12T07:05:41.685Z,1.10
2017-06-12T07:08:09.137Z,1.03
2017-06-12T07:10:36.598Z,0.67
2017-06-12T07:13:04.055Z,0.50
2017-06-12T07:15:31.526Z,0.57
2017-06-12T07:17:58.972Z,0.83
2017-06-12T07:20:26.438Z,0.60
2017-06-12T07:22:53.885Z,1.10
2017-06-12T07:25:21.347Z,0.70
2017-06-12T07:27:48.789Z,0.70
2017-06-12T07:30:16.234Z,0.60
2017-06-12T07:32:43.705Z,0.60
2017-06-12T07:35:11.173Z,0.77
2017-06-12T07:37:38.628Z,0.80
2017-06-12T07:40:06.081Z,0.90
2017-06-12T07:42:33.541Z,0.60
2017-06-12T07:45:00.996Z,0.83
2017-06-12T07:47:28.458Z,0.80
2017-06-12T07:49:55.913Z,0.77
2017-06-12T07:52:23.361Z,0.70
2017-06-12T07:54:50.822Z,0.70
2017-06-12T07:57:18.269Z,0.53
2017-06-12T07:59:45.729Z,0.83
2017-06-12T08:02:13.174Z,0.80
2017-06-12T08:04:40.644Z,0.80
2017-06-12T08:07:08.110Z,0.60
2017-06-12T08:09:35.569Z,0.77
2017-06-12T08:12:03.016Z,0.60
2017-06-12T08:14:30.477Z,0.80
2017-06-12T08:16:57.933Z,0.50
2017-06-12T08:19:25.405Z,0.67
2017-06-12T08:21:52.861Z,0.70
2017-06-12T08:24:20.326Z,0.70
2017-06-12T08:26:47.797Z,0.83
2017-06-12T08:29:15.263Z,0.70
2017-06-12T08:31:43.489Z,0.80
2017-06-12T08:34:10.946Z,0.63
2017-06-12T08:36:38.410Z,0.77
2017-06-12T08:39:05.869Z,0.70
2017-06-12T08:41:33.324Z,1.07
2017-06-12T08:44:00.774Z,0.90
2017-06-12T08:46:28.229Z,0.80
2017-06-12T08:48:55.677Z,0.50
2017-06-12T08:51:23.149Z,1.00
2017-06-12T08:53:50.618Z,0.80
2017-06-12T08:56:18.066Z,1.10
2017-06-12T08:58:45.538Z,0.70
2017-06-12T09:01:12.985Z,0.90
2017-06-12T09:03:40.441Z,1.03
2017-06-12T09:06:07.926Z,0.70
2017-06-12T09:08:36.149Z,0.73
2017-06-12T09:11:03.601Z,0.73
2017-06-12T09:13:31.060Z,1.10
2017-06-12T09:15:58.519Z,0.83
2017-06-12T09:18:25.973Z,0.93
2017-06-12T09:20:53.440Z,0.90
2017-06-12T09:23:20.913Z,1.10
2017-06-12T09:25:48.362Z,0.90
2017-06-12T09:28:15.817Z,1.10
2017-06-12T09:30:43.279Z,0.90
2017-06-12T09:33:10.737Z,0.63
2017-06-12T09:35:38.184Z,0.80
2017-06-12T09:38:05.654Z,0.63
2017-06-12T09:40:33.105Z,0.80
2017-06-12T09:43:00.564Z,0.93
2017-06-12T09:45:28.016Z,0.87
2017-06-12T09:47:55.469Z,1.13
2017-06-12T09:50:22.929Z,0.90
2017-06-12T09:52:50.378Z,0.90
2017-06-12T09:55:17.852Z,1.10
2017-06-12T09:57:45.302Z,0.80
2017-06-12T10:00:12.765Z,0.70
2017-06-12T10:02:40.218Z,0.93
2017-06-12T10:05:07.677Z,0.80
2017-06-12T10:07:35.133Z,0.83
2017-06-12T10:10:02.606Z,0.57
2017-06-12T10:12:30.066Z,0.73
2017-06-12T10:14:57.530Z,0.83
2017-06-12T10:17:24.998Z,0.63
2017-06-12T10:19:52.437Z,0.40
2017-06-12T10:22:19.901Z,0.60
2017-06-12T10:24:47.349Z,0.70
2017-06-12T10:27:14.817Z,0.67
2017-06-12T10:29:42.273Z,0.80
2017-06-12T10:32:09.736Z,0.57
2017-06-12T10:34:37.945Z,0.60
2017-06-12T10:37:05.416Z,0.60
2017-06-12T10:39:32.869Z,0.60
2017-06-12T10:42:00.355Z,0.60
2017-06-12T10:44:27.808Z,0.60
2017-06-12T10:46:55.259Z,0.80
2017-06-12T10:49:22.725Z,0.90
2017-06-12T10:51:50.178Z,0.70
2017-06-12T10:54:17.637Z,0.60
2017-06-12T10:56:45.098Z,0.47
2017-06-12T10:59:12.569Z,0.87
2017-06-12T11:01:40.014Z,0.80
2017-06-12T11:04:07.476Z,0.60
2017-06-12T11:06:34.929Z,0.60
2017-06-12T11:09:02.402Z,0.53
2017-06-12T11:11:29.850Z,0.53
2017-06-12T11:13:57.302Z,0.90
2017-06-12T11:16:24.767Z,0.57
2017-06-12T11:18:52.222Z,0.60
2017-06-12T11:21:19.681Z,0.60
2017-06-12T11:23:47.134Z,0.70
2017-06-12T11:26:14.589Z,0.60
2017-06-12T11:28:42.037Z,0.63
2017-06-12T11:31:09.510Z,0.70
2017-06-12T11:33:36.968Z,0.80
2017-06-12T11:36:04.429Z,0.60
2017-06-12T11:38:31.877Z,0.57
2017-06-12T11:40:59.329Z,0.63
2017-06-12T11:43:26.797Z,0.60
2017-06-12T11:45:55.025Z,0.60
2017-06-12T11:48:22.485Z,0.47
2017-06-12T11:50:49.929Z,0.80
2017-06-12T11:53:17.397Z,0.80
2017-06-12T11:55:44.853Z,0.80
2017-06-12T11:58:12.333Z,0.80
2017-06-12T12:00:39.797Z,0.90
2017-06-12T12:03:07.270Z,1.00
2017-06-12T12:05:34.714Z,0.80
2017-06-12T12:08:02.178Z,1.00
2017-06-12T12:10:29.629Z,0.60
2017-06-12T12:12:57.089Z,0.60
2017-06-12T12:15:24.565Z,1.03
2017-06-12T12:17:52.785Z,0.57
2017-06-12T12:20:20.240Z,0.70
2017-06-12T12:22:47.699Z,0.60
2017-06-12T12:25:15.161Z,0.60
2017-06-12T12:27:42.623Z,0.80
2017-06-12T12:30:10.429Z,0.63
2017-06-12T12:32:37.875Z,0.90
2017-06-12T12:35:05.337Z,0.60
2017-06-12T12:37:32.789Z,0.97
2017-06-12T12:40:00.249Z,0.90
2017-06-12T12:42:27.696Z,0.90
2017-06-12T12:44:55.149Z,0.60
2017-06-12T12:47:22.613Z,0.60
2017-06-12T12:49:50.053Z,0.97
2017-06-12T12:52:17.518Z,0.80
2017-06-12T12:54:44.965Z,0.67
2017-06-12T12:57:12.425Z,0.70
2017-06-12T12:59:39.881Z,0.80
2017-06-12T13:02:07.348Z,0.50
2017-06-12T13:04:34.789Z,0.90
2017-06-12T13:07:02.254Z,1.20
2017-06-12T13:09:29.714Z,0.80
2017-06-12T13:11:57.186Z,0.60
2017-06-12T13:14:24.642Z,1.13
2017-06-12T13:16:52.088Z,0.67
2017-06-12T13:19:19.553Z,0.60
2017-06-12T13:21:46.995Z,0.77
2017-06-12T13:24:14.459Z,0.80
2017-06-12T13:26:41.910Z,0.90
2017-06-12T13:29:09.373Z,0.87
2017-06-12T13:31:37.042Z,1.10
2017-06-12T13:34:04.501Z,1.00
2017-06-12T13:36:31.945Z,0.90
2017-06-12T13:38:59.409Z,0.70
2017-06-12T13:41:26.859Z,0.90
2017-06-12T13:43:54.333Z,1.07
2017-06-12T13:46:21.785Z,0.73
2017-06-12T13:48:49.233Z,0.73
2017-06-12T13:51:16.700Z,1.00
2017-06-12T13:53:44.141Z,1.10
2017-06-12T13:56:11.602Z,1.33
2017-06-12T13:58:39.053Z,0.73
2017-06-12T14:01:06.517Z,1.00
2017-06-12T14:03:33.969Z,1.63
2017-06-12T14:06:01.432Z,1.43
2017-06-12T14:08:28.882Z,0.83
2017-06-12T14:10:56.346Z,1.60
2017-06-12T14:13:23.797Z,0.97
2017-06-12T14:15:51.253Z,0.90
2017-06-12T14:18:18.726Z,1.33
2017-06-12T14:20:46.174Z,1.10
2017-06-12T14:23:13.641Z,0.70
2017-06-12T14:25:41.085Z,1.10
2017-06-12T14:28:08.546Z,1.00
2017-06-12T14:30:36.005Z,1.10
2017-06-12T14:33:03.465Z,1.47
2017-06-12T14:35:30.916Z,1.20
2017-06-12T14:37:58.382Z,1.00
2017-06-12T14:40:25.844Z,1.50
2017-06-12T14:42:53.341Z,1.50
2017-06-12T14:45:20.792Z,1.10
2017-06-12T14:47:48.234Z,1.00
2017-06-12T14:50:16.469Z,1.50
2017-06-12T14:52:43.936Z,1.77
2017-06-12T14:55:11.409Z,1.57
2017-06-12T14:57:38.853Z,1.47
2017-06-12T15:00:06.313Z,1.20
2017-06-12T15:02:33.761Z,1.60
2017-06-12T15:05:01.224Z,1.30
2017-06-12T15:07:28.691Z,1.30
2017-06-12T15:09:56.153Z,1.73
2017-06-12T15:12:23.615Z,1.60
2017-06-12T15:14:51.088Z,1.33
2017-06-12T15:17:18.529Z,1.30
2017-06-12T15:19:45.989Z,1.30
2017-06-12T15:22:13.453Z,1.20
2017-06-12T15:24:41.663Z,1.27
2017-06-12T15:27:09.126Z,1.20
2017-06-12T15:29:36.581Z,1.63
2017-06-12T15:32:04.058Z,1.20
2017-06-12T15:34:31.513Z,1.67
2017-06-12T15:36:58.977Z,1.23
2017-06-12T15:39:26.425Z,1.27
2017-06-12T15:41:53.898Z,1.93
2017-06-12T15:44:21.341Z,1.27
2017-06-12T15:46:48.793Z,1.30
2017-06-12T15:49:16.261Z,1.17
2017-06-12T15:51:43.718Z,1.30
2017-06-12T15:54:11.186Z,1.40
2017-06-12T15:56:38.646Z,1.70
2017-06-12T15:59:06.101Z,2.10
2017-06-12T16:01:33.552Z,1.40
2017-06-12T16:04:01.013Z,1.73
2017-06-12T16:06:28.470Z,1.63
2017-06-12T16:08:55.937Z,1.50
2017-06-12T16:11:23.390Z,1.60
2017-06-12T16:13:50.852Z,1.57
2017-06-12T16:16:18.309Z,1.70
2017-06-12T16:18:45.757Z,1.40
2017-06-12T16:21:13.217Z,1.63
2017-06-12T16:23:40.674Z,1.83
2017-06-12T16:26:08.138Z,2.47
2017-06-12T16:28:35.593Z,2.17
2017-06-12T16:31:03.058Z,1.53
2017-06-12T16:33:31.280Z,2.20
2017-06-12T16:35:58.742Z,1.77
2017-06-12T16:38:26.190Z,1.70
2017-06-12T16:40:53.671Z,1.50
2017-06-12T16:43:21.357Z,1.60
2017-06-12T16:45:48.801Z,1.53
2017-06-12T16:48:16.261Z,1.63
2017-06-12T16:50:43.704Z,2.00
2017-06-12T16:53:11.177Z,1.70
2017-06-12T16:55:38.647Z,1.17
2017-06-12T16:58:06.100Z,2.10
2017-06-12T17:00:33.545Z,2.20
2017-06-12T17:03:01.031Z,1.90
2017-06-12T17:05:29.281Z,1.60
2017-06-12T17:07:56.733Z,1.53
2017-06-12T17:10:24.193Z,1.70
2017-06-12T17:12:51.655Z,2.03
2017-06-12T17:15:19.123Z,2.53
2017-06-12T17:17:46.561Z,2.13
2017-06-12T17:20:14.021Z,2.00
2017-06-12T17:22:41.465Z,1.87
2017-06-12T17:25:08.949Z,1.73
2017-06-12T17:27:37.169Z,1.93
2017-06-12T17:30:04.629Z,2.10
2017-06-12T17:32:32.097Z,1.80
2017-06-12T17:34:59.547Z,2.20
2017-06-12T17:37:27.008Z,2.10
2017-06-12T17:39:54.460Z,2.83
2017-06-12T17:42:21.953Z,2.13
2017-06-12T17:44:49.409Z,2.30
2017-06-12T17:47:16.866Z,2.40
2017-06-12T17:49:44.321Z,2.20
2017-06-12T17:52:11.773Z,2.30
2017-06-12T17:54:39.238Z,2.20
2017-06-12T17:57:06.697Z,1.93
2017-06-12T17:59:34.160Z,2.00
2017-06-12T18:02:01.605Z,2.00
2017-06-12T18:04:29.077Z,2.20
2017-06-12T18:06:57.306Z,2.50
2017-06-12T18:09:24.744Z,2.33
2017-06-12T18:11:52.213Z,2.10
2017-06-12T18:14:19.662Z,2.20
2017-06-12T18:16:47.129Z,2.17
2017-06-12T18:19:14.573Z,2.30
2017-06-12T18:21:42.042Z,2.37
2017-06-12T18:24:09.498Z,1.93
2017-06-12T18:26:36.969Z,2.30
2017-06-12T18:29:04.417Z,1.83
2017-06-12T18:31:31.881Z,2.10
2017-06-12T18:33:59.366Z,2.50
2017-06-12T18:36:26.826Z,1.70
2017-06-12T18:38:54.278Z,2.40
2017-06-12T18:41:21.739Z,2.40
2017-06-12T18:43:49.202Z,2.43
2017-06-12T18:46:16.654Z,1.80
2017-06-12T18:48:44.248Z,1.93
2017-06-12T18:51:11.702Z,1.97
2017-06-12T18:53:39.169Z,2.53
2017-06-12T18:56:14.734Z,2.00
2017-06-12T18:58:42.195Z,2.20
2017-06-12T19:01:09.650Z,2.30
2017-06-12T19:03:37.121Z,1.97
2017-06-12T19:06:04.565Z,2.50
2017-06-12T19:08:32.031Z,2.10
2017-06-12T19:10:59.474Z,2.10
2017-06-12T19:13:26.936Z,1.97
2017-06-12T19:15:54.398Z,2.17
2017-06-12T19:18:21.852Z,2.20
2017-06-12T19:20:49.310Z,2.70
2017-06-12T19:23:16.773Z,2.00
2017-06-12T19:25:44.238Z,1.83
2017-06-12T19:28:11.710Z,2.23
2017-06-12T19:30:39.154Z,2.60
2017-06-12T19:33:06.610Z,2.93
2017-06-12T19:35:34.058Z,2.17
2017-06-12T19:38:01.525Z,2.60
2017-06-12T19:40:28.984Z,2.20
2017-06-12T19:42:56.465Z,2.00
2017-06-12T19:45:23.916Z,2.47
2017-06-12T19:47:51.369Z,2.40
2017-06-12T19:50:18.822Z,2.47
2017-06-12T19:52:46.281Z,2.20
2017-06-12T19:55:13.742Z,2.60
2017-06-12T19:57:41.197Z,2.73
2017-06-12T20:00:08.658Z,2.70
2017-06-12T20:02:36.128Z,2.00
2017-06-12T20:05:03.569Z,3.40
2017-06-12T20:07:31.026Z,3.67
2017-06-12T20:09:58.481Z,2.77
2017-06-12T20:12:25.929Z,2.20
2017-06-12T20:14:53.393Z,2.53
2017-06-12T20:17:20.837Z,2.57
2017-06-12T20:19:48.295Z,2.43
2017-06-12T20:22:15.749Z,2.33
2017-06-12T20:24:43.205Z,2.33
2017-06-12T20:27:10.668Z,2.60
2017-06-12T20:29:38.121Z,3.73
2017-06-12T20:32:05.588Z,2.43
2017-06-12T20:34:33.056Z,2.63
2017-06-12T20:37:00.505Z,2.47
2017-06-12T20:39:27.962Z,2.47
2017-06-12T20:41:55.409Z,3.27
2017-06-12T20:44:22.870Z,2.43
2017-06-12T20:46:50.323Z,2.40
2017-06-12T20:49:17.795Z,2.50
2017-06-12T20:51:45.239Z,2.40
2017-06-12T20:54:12.697Z,2.40
2017-06-12T20:56:40.140Z,2.43
2017-06-12T20:59:07.606Z,2.53
2017-06-12T21:01:35.061Z,3.00
2017-06-12T21:04:02.527Z,2.80
2017-06-12T21:06:29.974Z,2.93
2017-06-12T21:08:57.433Z,2.80
2017-06-12T21:11:24.877Z,2.70
2017-06-12T21:13:52.337Z,1.87
2017-06-12T21:16:19.801Z,2.80
2017-06-12T21:18:47.261Z,3.43
2017-06-12T21:21:14.710Z,2.27
2017-06-12T21:23:42.191Z,2.50
2017-06-12T21:26:09.633Z,2.97
2017-06-12T21:28:37.081Z,2.00
2017-06-12T21:31:04.545Z,3.50
2017-06-12T21:33:32.002Z,2.70
2017-06-12T21:35:59.473Z,2.97
2017-06-12T21:38:26.940Z,2.83
2017-06-12T21:40:54.389Z,2.53
2017-06-12T21:43:21.839Z,2.63
2017-06-12T21:45:49.292Z,2.60
2017-06-12T21:48:16.745Z,2.63
2017-06-12T21:50:44.209Z,3.90
2017-06-12T21:53:11.657Z,2.40
2017-06-12T21:55:39.113Z,2.47
2017-06-12T21:58:06.565Z,2.27
2017-06-12T22:00:34.026Z,2.30
2017-06-12T22:03:01.479Z,3.03
2017-06-12T22:05:28.940Z,2.87
2017-06-12T22:07:56.404Z,2.60
2017-06-12T22:10:23.862Z,2.33
2017-06-12T22:12:51.313Z,2.80
2017-06-12T22:15:18.770Z,2.73
2017-06-12T22:17:46.225Z,2.80
2017-06-12T22:20:13.697Z,2.50
2017-06-12T22:22:41.149Z,2.60
2017-06-12T22:25:08.617Z,2.37
2017-06-12T22:27:36.083Z,2.80
2017-06-12T22:30:03.542Z,2.63
2017-06-12T22:32:31.752Z,2.37
2017-06-12T22:34:59.215Z,2.60
2017-06-12T22:37:26.656Z,2.43
2017-06-12T22:39:54.128Z,2.13
2017-06-12T22:42:21.565Z,2.00
2017-06-12T22:44:49.017Z,2.47
2017-06-12T22:47:16.471Z,2.50
2017-06-12T22:49:43.913Z,2.47
2017-06-12T22:52:12.141Z,2.20
2017-06-12T22:54:39.592Z,3.30
2017-06-12T22:57:07.057Z,2.90
2017-06-12T22:59:34.508Z,2.93
2017-06-12T23:02:01.980Z,2.60
2017-06-12T23:04:29.423Z,3.03
2017-06-12T23:06:56.881Z,2.70
2017-06-12T23:09:24.333Z,2.80
2017-06-12T23:11:51.794Z,2.67
2017-06-12T23:14:19.251Z,2.40
2017-06-12T23:16:46.710Z,2.43
2017-06-12T23:19:14.166Z,3.00
2017-06-12T23:21:59.311Z,3.23
2017-06-12T23:24:26.752Z,2.50
2017-06-12T23:26:54.983Z,2.77
2017-06-12T23:29:22.421Z,3.30
2017-06-12T23:31:49.878Z,5.13
2017-06-12T23:34:17.337Z,3.00
2017-06-12T23:36:44.795Z,3.10
2017-06-12T23:39:12.249Z,2.93
2017-06-12T23:41:39.712Z,3.40
2017-06-12T23:44:07.162Z,3.73
2017-06-12T23:46:34.623Z,3.17
2017-06-12T23:49:02.072Z,2.47
2017-06-12T23:51:29.537Z,3.00
2017-06-12T23:53:56.989Z,3.17
2017-06-12T23:56:24.449Z,2.80
2017-06-12T23:58:51.905Z,3.90
